Historique des mesures à Cassis (13260), France
Quotidien Résumé Janvier 20, 2018 Unités:  Métrique    US   Métrique/US
« Précédent (Jour)
Suivant (Jour) »
Quotidien Hebdomadaire Mensuel Annuel Période au choix
  Maximum: Minimum: Moyenne:
Température: TemperatureC °C 8.8 °C 10.3 °C
Point de rosée: DewpointC °C -1.6 °C 3.2 °C
Humidité: Humidity % 48 % 59 %
Vitesse du vent: 0 km/h 0 km/h 17.4 km/h
Rafales: 0 km/h - -
Vent:- - WSW
Pression: PressurehPa hPa 1006.7 hPa -
Précipitations: 2.5 mm    
Historical Graphs
 
 
Mesures pour : Janvier 20, 2018
Heure Temperature Point de rosée Pression Vent Vitesse du vent Rafales Humidité Pluie (par heure) Conditions
TemperatureC °C DewpointC °C PressurehPa hPa Calm     Humidity % HourlyPrecipMM mm SoftwareType W/m2
00:12 10.4 °C 2.2 °C 1013.8 hPa NNW 17.9 km/h 27.2 km/h 57 % 0.0 mm open2300-1.11 W/m2
01:12 10.2 °C 1.6 °C 1013.4 hPa NW 38.3 km/h 38.3 km/h 55 % 0.0 mm open2300-1.11 W/m2
02:12 10.1 °C 0.9 °C 1013.1 hPa NW 19.6 km/h 19.6 km/h 53 % 0.0 mm open2300-1.11 W/m2
03:12 9.9 °C 0.3 °C 1013.1 hPa WNW 46.8 km/h 46.8 km/h 51 % 0.0 mm open2300-1.11 W/m2
04:12 9.5 °C -0.4 °C 1013.1 hPa NNW 36.5 km/h 36.5 km/h 50 % 0.0 mm open2300-1.11 W/m2
05:12 9.3 °C -0.9 °C 1012.8 hPa North 22.5 km/h 35.2 km/h 49 % 0.0 mm open2300-1.11 W/m2
06:12 9.1 °C -1.4 °C 1013.1 hPa WNW 36 km/h 36 km/h 48 % 0.0 mm open2300-1.11 W/m2
07:12 8.9 °C -1.6 °C 1014.1 hPa NNW 17.9 km/h 19.6 km/h 48 % 0.0 mm open2300-1.11 W/m2
08:12 8.8 °C -1.1 °C 1014.4 hPa NNW 8 km/h 8 km/h 50 % 0.0 mm open2300-1.11 W/m2
09:12 9.8 °C -0.1 °C 1015.1 hPa West 23 km/h 23 km/h 50 % 0.0 mm open2300-1.11 W/m2
10:12 9.9 °C 0.3 °C 1015.1 hPa North 8 km/h 12.2 km/h 51 % 0.0 mm open2300-1.11 W/m2
11:12 10.2 °C 0.8 °C 1015.1 hPa NW 7.6 km/h 7.6 km/h 52 % 0.0 mm open2300-1.11 W/m2
12:12 10.7 °C 1.5 °C 1014.1 hPa West 13.2 km/h 13.2 km/h 53 % 0.0 mm open2300-1.11 W/m2
13:12 10.7 °C 2.2 °C 1013.1 hPa Calm   2.9 km/h 56 % 0.0 mm open2300-1.11 W/m2
14:12 10.5 °C 2.1 °C 1011.7 hPa Calm   8 km/h 56 % 0.0 mm open2300-1.11 W/m2
15:12 10.8 °C 4.7 °C 1010.7 hPa Calm   11.6 km/h 66 % 0.0 mm open2300-1.11 W/m2
16:12 10.6 °C 6.2 °C 1009.7 hPa Calm     74 % 0.5 mm open2300-1.11 W/m2
17:12 11.1 °C 7.4 °C 1009.4 hPa NW 4.7 km/h 23.8 km/h 78 % 0.5 mm open2300-1.11 W/m2
18:12 11.9 °C 8.2 °C 1008.7 hPa WSW 27.2 km/h 32.3 km/h 78 % 0.0 mm open2300-1.11 W/m2
19:12 12.6 °C 8.4 °C 1008.4 hPa SSW 4.7 km/h 13.2 km/h 76 % 0.0 mm open2300-1.11 W/m2
20:12 12.9 °C 9.1 °C 1008.0 hPa WNW 24.3 km/h 45.9 km/h 78 % 0.0 mm open2300-1.11 W/m2
21:12 12.9 °C 9.3 °C 1007.3 hPa North 13.2 km/h 52.8 km/h 79 % 0.0 mm open2300-1.11 W/m2
22:12 12.9 °C 9.5 °C 1006.7 hPa West 28.5 km/h 45.4 km/h 80 % 0.0 mm open2300-1.11 W/m2
23:12 13.3 °C 9.9 °C 1006.7 hPa WNW 37 km/h 37 km/h 80 % 0.0 mm open2300-1.11 W/m2
Observations météo à CASSIS
WU-History script by Weather Underground - 1 mb